createdAt,value
2017-08-05T00:01:46.014Z,65.28
2017-08-05T00:04:14.341Z,65.19
2017-08-05T00:06:43.230Z,65.79
2017-08-05T00:09:11.636Z,65.92
2017-08-05T00:11:39.959Z,66.44
2017-08-05T00:14:08.712Z,66.28
2017-08-05T00:16:37.055Z,65.73
2017-08-05T00:19:06.178Z,66.05
2017-08-05T00:21:34.974Z,66.38
2017-08-05T00:24:03.320Z,67.09
2017-08-05T00:26:31.649Z,65.99
2017-08-05T00:29:00.516Z,67.13
2017-08-05T00:31:28.845Z,66.14
2017-08-05T00:33:57.182Z,66.24
2017-08-05T00:36:26.022Z,66.51
2017-08-05T00:38:54.358Z,66.03
2017-08-05T00:41:22.711Z,66.50
2017-08-05T00:43:51.447Z,66.79
2017-08-05T00:46:19.794Z,67.11
2017-08-05T00:48:48.117Z,66.16
2017-08-05T00:51:16.935Z,65.60
2017-08-05T00:53:45.278Z,66.30
2017-08-05T00:56:13.621Z,66.01
2017-08-05T00:58:42.582Z,66.51
2017-08-05T01:01:10.937Z,67.16
2017-08-05T01:03:40.039Z,67.14
2017-08-05T01:06:09.662Z,66.73
2017-08-05T01:08:38.007Z,68.07
2017-08-05T01:11:06.340Z,67.39
2017-08-05T01:13:35.311Z,67.54
2017-08-05T01:16:03.657Z,67.78
2017-08-05T01:18:32.014Z,68.57
2017-08-05T01:21:00.658Z,68.83
2017-08-05T01:23:29.012Z,68.19
2017-08-05T01:25:57.367Z,68.18
2017-08-05T01:28:26.028Z,67.90
2017-08-05T01:30:54.368Z,67.63
2017-08-05T01:33:22.743Z,67.68
2017-08-05T01:35:51.514Z,68.55
2017-08-05T01:38:19.861Z,68.39
2017-08-05T01:40:48.205Z,68.19
2017-08-05T01:43:16.945Z,68.78
2017-08-05T01:45:45.281Z,68.73
2017-08-05T01:48:13.627Z,68.23
2017-08-05T01:50:42.272Z,68.28
2017-08-05T01:53:10.620Z,67.96
2017-08-05T01:55:38.971Z,69.22
2017-08-05T01:58:07.653Z,68.46
2017-08-05T02:00:35.997Z,68.65
2017-08-05T02:03:04.341Z,68.53
2017-08-05T02:05:32.993Z,67.73
2017-08-05T02:08:01.357Z,68.10
2017-08-05T02:10:29.685Z,67.96
2017-08-05T02:12:58.319Z,67.84
2017-08-05T02:15:26.642Z,68.45
2017-08-05T02:17:55.255Z,68.67
2017-08-05T02:20:24.459Z,68.53
2017-08-05T02:22:52.809Z,68.67
2017-08-05T02:25:21.147Z,68.71
2017-08-05T02:27:49.976Z,68.77
2017-08-05T02:30:18.323Z,69.33
2017-08-05T02:32:46.668Z,69.17
2017-08-05T02:35:15.346Z,69.77
2017-08-05T02:37:43.686Z,70.02
2017-08-05T02:40:12.030Z,69.29
2017-08-05T02:42:40.822Z,68.73
2017-08-05T02:45:09.230Z,68.73
2017-08-05T02:47:38.325Z,69.72
2017-08-05T02:50:07.935Z,70.58
2017-08-05T02:52:36.276Z,70.25
2017-08-05T02:55:04.624Z,70.08
2017-08-05T02:57:33.245Z,70.12
2017-08-05T03:00:01.607Z,70.64
2017-08-05T03:02:29.942Z,70.05
2017-08-05T03:04:58.791Z,69.27
2017-08-05T03:07:27.151Z,70.35
2017-08-05T03:09:55.491Z,71.12
2017-08-05T03:12:24.273Z,70.82
2017-08-05T03:14:52.609Z,70.42
2017-08-05T03:17:20.957Z,70.65
2017-08-05T03:19:49.720Z,70.59
2017-08-05T03:22:18.069Z,71.32
2017-08-05T03:24:46.422Z,70.44
2017-08-05T03:27:15.117Z,70.49
2017-08-05T03:29:43.496Z,71.33
2017-08-05T03:32:11.830Z,71.62
2017-08-05T03:34:40.519Z,72.21
2017-08-05T03:37:08.853Z,71.84
2017-08-05T03:39:37.181Z,71.82
2017-08-05T03:42:05.811Z,71.74
2017-08-05T03:44:34.135Z,71.71
2017-08-05T03:47:02.479Z,71.10
2017-08-05T03:49:32.136Z,69.78
2017-08-05T03:52:00.486Z,71.36
2017-08-05T03:54:30.370Z,70.43
2017-08-05T03:56:59.203Z,70.64
2017-08-05T03:59:27.558Z,71.38
2017-08-05T04:01:55.900Z,70.81
2017-08-05T04:04:24.552Z,70.94
2017-08-05T04:06:52.901Z,71.60
2017-08-05T04:09:21.241Z,71.23
2017-08-05T04:11:50.295Z,70.36
2017-08-05T04:14:18.626Z,70.91
2017-08-05T04:16:46.949Z,70.84
2017-08-05T04:19:15.586Z,71.04
2017-08-05T04:21:43.931Z,71.53
2017-08-05T04:24:12.263Z,71.14
2017-08-05T04:26:41.182Z,70.65
2017-08-05T04:29:09.537Z,70.45
2017-08-05T04:31:38.672Z,69.55
2017-08-05T04:34:07.612Z,68.82
2017-08-05T04:36:35.951Z,69.07
2017-08-05T04:39:04.302Z,68.74
2017-08-05T04:41:32.923Z,69.54
2017-08-05T04:44:01.260Z,68.41
2017-08-05T04:46:30.367Z,67.49
2017-08-05T04:48:59.802Z,68.14
2017-08-05T04:51:28.136Z,68.76
2017-08-05T04:53:57.246Z,67.67
2017-08-05T04:56:27.294Z,66.76
2017-08-05T04:58:55.671Z,66.23
2017-08-05T05:01:24.012Z,66.75
2017-08-05T05:03:52.906Z,66.70
2017-08-05T05:06:21.241Z,66.45
2017-08-05T05:08:49.592Z,67.65
2017-08-05T05:11:18.239Z,66.68
2017-08-05T05:13:47.383Z,66.46
2017-08-05T05:16:15.718Z,65.83
2017-08-05T05:18:44.606Z,65.22
2017-08-05T05:21:12.950Z,66.52
2017-08-05T05:23:41.292Z,68.19
2017-08-05T05:26:09.948Z,66.57
2017-08-05T05:28:38.328Z,66.11
2017-08-05T05:31:06.677Z,64.94
2017-08-05T05:33:35.514Z,64.63
2017-08-05T05:36:03.870Z,65.11
2017-08-05T05:38:32.226Z,64.49
2017-08-05T05:41:01.690Z,65.43
2017-08-05T05:43:30.033Z,66.65
2017-08-05T05:45:58.372Z,66.54
2017-08-05T05:48:27.232Z,65.50
2017-08-05T05:50:55.586Z,65.56
2017-08-05T05:53:24.685Z,65.80
2017-08-05T05:55:54.318Z,65.62
2017-08-05T05:58:22.682Z,64.50
2017-08-05T06:00:51.050Z,63.47
2017-08-05T06:03:19.954Z,63.13
2017-08-05T06:05:48.295Z,63.10
2017-08-05T06:08:16.644Z,64.56
2017-08-05T06:10:45.381Z,63.98
2017-08-05T06:13:13.713Z,65.15
2017-08-05T06:15:42.045Z,65.22
2017-08-05T06:18:11.453Z,64.08
2017-08-05T06:20:39.794Z,62.72
2017-08-05T06:23:08.145Z,61.46
2017-08-05T06:25:37.108Z,61.79
2017-08-05T06:28:05.453Z,62.48
2017-08-05T06:30:33.814Z,61.79
2017-08-05T06:33:02.554Z,62.93
2017-08-05T06:35:30.907Z,60.85
2017-08-05T06:37:59.256Z,60.02
2017-08-05T06:40:28.007Z,59.84
2017-08-05T06:42:56.344Z,59.48
2017-08-05T06:45:24.689Z,59.92
2017-08-05T06:47:53.460Z,58.55
2017-08-05T06:50:21.956Z,58.55
2017-08-05T06:52:50.279Z,58.16
2017-08-05T06:55:19.115Z,59.95
2017-08-05T06:57:47.511Z,59.57
2017-08-05T07:00:15.872Z,59.12
2017-08-05T07:02:44.750Z,60.57
2017-08-05T07:05:13.109Z,60.11
2017-08-05T07:07:41.476Z,59.24
2017-08-05T07:10:10.270Z,58.76
2017-08-05T07:12:38.605Z,58.77
2017-08-05T07:15:06.972Z,59.30
2017-08-05T07:17:35.619Z,58.99
2017-08-05T07:20:04.032Z,59.22
2017-08-05T07:22:32.429Z,58.48
2017-08-05T07:25:01.184Z,57.75
2017-08-05T07:27:29.717Z,57.48
2017-08-05T07:29:58.146Z,57.44
2017-08-05T07:32:27.612Z,58.22
2017-08-05T07:34:55.980Z,57.22
2017-08-05T07:37:24.339Z,56.15
2017-08-05T07:39:53.002Z,55.36
2017-08-05T07:42:21.511Z,55.95
2017-08-05T07:44:49.903Z,55.20
2017-08-05T07:47:18.750Z,54.22
2017-08-05T07:49:47.207Z,54.79
2017-08-05T07:52:15.569Z,52.94
2017-08-05T07:54:44.567Z,51.91
2017-08-05T07:57:13.312Z,51.05
2017-08-05T07:59:42.118Z,54.01
2017-08-05T08:02:11.090Z,54.73
2017-08-05T08:04:39.491Z,53.24
2017-08-05T08:07:08.068Z,54.26
2017-08-05T08:09:37.067Z,53.40
2017-08-05T08:12:05.651Z,52.92
2017-08-05T08:14:34.151Z,53.37
2017-08-05T08:17:03.305Z,55.20
2017-08-05T08:19:31.803Z,55.64
2017-08-05T08:22:00.345Z,55.16
2017-08-05T08:24:30.076Z,56.42
2017-08-05T08:26:58.588Z,55.39
2017-08-05T08:29:27.043Z,56.80
2017-08-05T08:31:55.844Z,58.08
2017-08-05T08:34:24.249Z,56.85
2017-08-05T08:36:52.603Z,56.01
2017-08-05T08:39:21.375Z,55.36
2017-08-05T08:41:49.771Z,55.41
2017-08-05T08:44:18.205Z,55.42
2017-08-05T08:46:47.006Z,55.05
2017-08-05T08:49:15.391Z,57.76
2017-08-05T08:51:43.776Z,57.47
2017-08-05T08:54:12.507Z,56.67
2017-08-05T08:56:40.842Z,56.07
2017-08-05T08:59:09.439Z,55.15
2017-08-05T09:01:38.418Z,55.16
2017-08-05T09:04:06.770Z,54.82
2017-08-05T09:06:35.118Z,53.48
2017-08-05T09:09:03.761Z,53.32
2017-08-05T09:11:32.890Z,53.34
2017-08-05T09:14:01.254Z,53.84
2017-08-05T09:16:29.922Z,55.20
2017-08-05T09:18:58.260Z,54.35
2017-08-05T09:21:26.620Z,53.98
2017-08-05T09:23:55.332Z,52.78
2017-08-05T09:26:23.714Z,52.08
2017-08-05T09:28:52.089Z,54.88
2017-08-05T09:31:20.754Z,54.91
2017-08-05T09:33:49.098Z,55.29
2017-08-05T09:36:17.468Z,57.04
2017-08-05T09:38:46.100Z,57.63
2017-08-05T09:41:14.470Z,57.56
2017-08-05T09:43:42.826Z,56.30
2017-08-05T09:46:11.510Z,55.43
2017-08-05T09:48:39.855Z,57.03
2017-08-05T09:51:08.202Z,56.11
2017-08-05T09:53:36.851Z,55.59
2017-08-05T09:56:05.217Z,55.00
2017-08-05T09:58:33.630Z,56.19
2017-08-05T10:01:02.881Z,56.33
2017-08-05T10:03:32.075Z,56.22
2017-08-05T10:06:00.441Z,55.81
2017-08-05T10:08:29.470Z,55.01
2017-08-05T10:10:57.812Z,54.68
2017-08-05T10:13:26.194Z,55.41
2017-08-05T10:15:54.859Z,57.47
2017-08-05T10:18:23.214Z,55.28
2017-08-05T10:20:51.591Z,53.65
2017-08-05T10:23:20.296Z,56.47
2017-08-05T10:25:48.666Z,55.15
2017-08-05T10:28:17.025Z,57.94
2017-08-05T10:30:45.802Z,57.61
2017-08-05T10:33:14.171Z,56.25
2017-08-05T10:35:43.282Z,57.92
2017-08-05T10:38:11.900Z,59.27
2017-08-05T10:40:40.252Z,58.14
2017-08-05T10:43:08.604Z,57.73
2017-08-05T10:45:37.304Z,58.95
2017-08-05T10:48:05.674Z,58.96
2017-08-05T10:50:34.031Z,57.68
2017-08-05T10:53:02.828Z,57.53
2017-08-05T10:55:31.176Z,58.27
2017-08-05T10:57:59.548Z,57.96
2017-08-05T11:00:28.209Z,57.96
2017-08-05T11:02:56.592Z,57.71
2017-08-05T11:05:24.939Z,58.19
2017-08-05T11:07:53.689Z,59.46
2017-08-05T11:10:22.067Z,59.75
2017-08-05T11:12:50.416Z,59.55
2017-08-05T11:15:19.483Z,59.89
2017-08-05T11:17:47.823Z,60.06
2017-08-05T11:20:16.179Z,58.48
2017-08-05T11:22:44.958Z,57.63
2017-08-05T11:25:13.362Z,57.95
2017-08-05T11:27:41.721Z,57.36
2017-08-05T11:30:10.372Z,57.78
2017-08-05T11:32:38.754Z,58.67
2017-08-05T11:35:07.104Z,59.71
2017-08-05T11:37:36.071Z,58.44
2017-08-05T11:40:04.463Z,57.69
2017-08-05T11:42:32.826Z,57.01
2017-08-05T11:45:01.488Z,57.60
2017-08-05T11:47:29.896Z,56.76
2017-08-05T11:49:58.258Z,58.33
2017-08-05T11:52:26.992Z,57.98
2017-08-05T11:54:55.365Z,58.50
2017-08-05T11:57:23.725Z,60.73
2017-08-05T11:59:52.612Z,61.15
2017-08-05T12:02:20.959Z,61.78
2017-08-05T12:04:49.317Z,60.83
2017-08-05T12:07:17.993Z,61.29
2017-08-05T12:09:46.335Z,60.60
2017-08-05T12:12:14.693Z,60.59
2017-08-05T12:14:43.470Z,59.00
2017-08-05T12:17:11.827Z,61.05
2017-08-05T12:19:40.175Z,60.16
2017-08-05T12:22:09.006Z,59.77
2017-08-05T12:24:38.118Z,60.25
2017-08-05T12:27:07.349Z,60.48
2017-08-05T12:29:36.828Z,60.31
2017-08-05T12:32:05.171Z,62.21
2017-08-05T12:34:33.616Z,62.50
2017-08-05T12:37:02.489Z,62.11
2017-08-05T12:39:30.888Z,61.67
2017-08-05T12:41:59.241Z,62.15
2017-08-05T12:44:28.029Z,62.78
2017-08-05T12:46:56.402Z,63.18
2017-08-05T12:49:24.758Z,64.10
2017-08-05T12:51:54.418Z,64.58
2017-08-05T12:54:22.767Z,64.40
2017-08-05T12:56:51.106Z,64.22
2017-08-05T12:59:19.866Z,64.37
2017-08-05T13:01:48.209Z,62.91
2017-08-05T13:04:17.343Z,62.04
2017-08-05T13:06:46.306Z,60.27
2017-08-05T13:09:14.674Z,59.77
2017-08-05T13:11:43.773Z,60.16
2017-08-05T13:14:12.553Z,58.59
2017-08-05T13:16:40.894Z,57.96
2017-08-05T13:19:09.221Z,59.32
2017-08-05T13:21:38.632Z,58.27
2017-08-05T13:24:06.983Z,57.38
2017-08-05T13:26:35.340Z,57.81
2017-08-05T13:29:04.085Z,58.80
2017-08-05T13:31:32.431Z,58.99
2017-08-05T13:34:01.530Z,57.73
2017-08-05T13:36:31.182Z,55.29
2017-08-05T13:38:59.540Z,55.17
2017-08-05T13:41:27.889Z,54.22
2017-08-05T13:43:56.803Z,56.31
2017-08-05T13:46:25.148Z,56.33
2017-08-05T13:48:53.508Z,53.81
2017-08-05T13:51:23.083Z,53.92
2017-08-05T13:53:51.448Z,52.69
2017-08-05T13:56:19.795Z,50.86
2017-08-05T13:58:48.415Z,51.28
2017-08-05T14:01:16.745Z,51.59
2017-08-05T14:03:45.103Z,49.92
2017-08-05T14:06:14.170Z,50.12
2017-08-05T14:08:42.521Z,51.06
2017-08-05T14:11:10.882Z,50.09
2017-08-05T14:13:39.629Z,48.98
2017-08-05T14:16:07.981Z,47.54
2017-08-05T14:18:37.096Z,46.34
2017-08-05T14:21:05.779Z,48.14
2017-08-05T14:23:34.138Z,52.12
2017-08-05T14:26:02.483Z,53.47
2017-08-05T14:28:31.202Z,52.53
2017-08-05T14:31:00.327Z,52.29
2017-08-05T14:33:28.712Z,51.98
2017-08-05T14:35:57.797Z,54.66
2017-08-05T14:38:26.159Z,54.01
2017-08-05T14:40:55.270Z,51.52
2017-08-05T14:43:23.902Z,49.68
2017-08-05T14:45:52.275Z,50.59
2017-08-05T14:48:20.620Z,50.17
2017-08-05T14:50:49.399Z,50.50
2017-08-05T14:53:17.748Z,50.77
2017-08-05T14:55:46.132Z,50.73
2017-08-05T14:58:15.129Z,49.16
2017-08-05T15:00:43.502Z,48.59
2017-08-05T15:03:12.636Z,47.33
2017-08-05T15:05:41.426Z,46.69
2017-08-05T15:08:09.766Z,47.60
2017-08-05T15:10:38.903Z,48.60
2017-08-05T15:13:07.694Z,48.57
2017-08-05T15:15:36.026Z,48.91
2017-08-05T15:18:04.391Z,48.62
2017-08-05T15:20:33.168Z,47.89
2017-08-05T15:23:01.541Z,49.02
2017-08-05T15:25:29.880Z,49.73
2017-08-05T15:27:58.606Z,50.39
2017-08-05T15:30:26.952Z,50.47
2017-08-05T15:32:55.294Z,51.04
2017-08-05T15:35:24.238Z,51.69
2017-08-05T15:37:52.571Z,51.91
2017-08-05T15:40:20.946Z,52.84
2017-08-05T15:42:49.781Z,52.65
2017-08-05T15:45:18.157Z,53.00
2017-08-05T15:47:46.496Z,53.11
2017-08-05T15:50:15.335Z,54.27
2017-08-05T15:52:43.713Z,55.97
2017-08-05T15:55:12.073Z,57.57
2017-08-05T15:57:40.728Z,61.75
2017-08-05T16:00:09.114Z,66.05
2017-08-05T16:02:37.458Z,63.86
2017-08-05T16:05:06.558Z,61.11
2017-08-05T16:07:34.906Z,64.15
2017-08-05T16:10:03.264Z,63.24
2017-08-05T16:12:31.915Z,64.51
2017-08-05T16:15:00.288Z,65.91
2017-08-05T16:17:28.685Z,66.67
2017-08-05T16:19:57.508Z,65.43
2017-08-05T16:22:25.854Z,65.65
2017-08-05T16:24:54.216Z,66.13
2017-08-05T16:27:23.156Z,66.39
2017-08-05T16:29:51.556Z,66.57
2017-08-05T16:32:19.948Z,68.07
2017-08-05T16:34:48.628Z,68.09
2017-08-05T16:37:17.007Z,67.14
2017-08-05T16:39:45.384Z,67.60
2017-08-05T16:42:14.049Z,67.57
2017-08-05T16:44:42.432Z,66.59
2017-08-05T16:47:10.801Z,66.00
2017-08-05T16:49:39.688Z,65.70
2017-08-05T16:52:08.058Z,65.55
2017-08-05T16:54:37.200Z,66.44
2017-08-05T16:57:06.116Z,65.64
2017-08-05T16:59:34.473Z,65.31
2017-08-05T17:02:02.821Z,65.66
2017-08-05T17:04:32.020Z,66.42
2017-08-05T17:07:00.380Z,66.45
2017-08-05T17:09:28.742Z,67.30
2017-08-05T17:11:57.531Z,67.50
2017-08-05T17:14:25.903Z,67.65
2017-08-05T17:16:54.239Z,67.57
2017-08-05T17:19:22.881Z,66.78
2017-08-05T17:21:51.280Z,67.91
2017-08-05T17:24:19.666Z,67.91
2017-08-05T17:26:48.567Z,68.15
2017-08-05T17:29:16.918Z,67.88
2017-08-05T17:31:45.285Z,68.03
2017-08-05T17:34:14.342Z,67.89
2017-08-05T17:36:42.730Z,67.76
2017-08-05T17:39:11.088Z,67.95
2017-08-05T17:41:39.860Z,67.83
2017-08-05T17:44:08.229Z,67.85
2017-08-05T17:46:37.351Z,68.15
2017-08-05T17:49:06.356Z,67.30
2017-08-05T17:51:34.742Z,66.82
2017-08-05T17:54:04.015Z,66.29
2017-08-05T17:56:33.209Z,67.02
2017-08-05T17:59:01.618Z,68.33
2017-08-05T18:01:30.008Z,68.50
2017-08-05T18:03:58.733Z,68.50
2017-08-05T18:06:28.058Z,68.86
2017-08-05T18:08:56.434Z,68.40
2017-08-05T18:11:25.252Z,69.30
2017-08-05T18:13:53.616Z,69.06
2017-08-05T18:16:21.972Z,68.90
2017-08-05T18:18:50.641Z,68.50
2017-08-05T18:21:19.098Z,69.30
2017-08-05T18:23:47.435Z,69.89
2017-08-05T18:26:16.077Z,70.58
2017-08-05T18:28:44.440Z,70.56
2017-08-05T18:31:12.784Z,70.42
2017-08-05T18:33:41.681Z,69.62
2017-08-05T18:36:10.034Z,69.61
2017-08-05T18:38:39.167Z,70.18
2017-08-05T18:41:08.143Z,69.65
2017-08-05T18:43:36.521Z,69.62
2017-08-05T18:46:04.913Z,69.59
2017-08-05T18:48:33.864Z,69.81
2017-08-05T18:51:03.203Z,69.55
2017-08-05T18:53:32.414Z,69.75
2017-08-05T18:56:01.901Z,70.14
2017-08-05T18:58:30.271Z,69.68
2017-08-05T19:00:58.622Z,69.76
2017-08-05T19:03:27.445Z,69.85
2017-08-05T19:05:55.807Z,70.45
2017-08-05T19:08:24.167Z,70.21
2017-08-05T19:10:53.615Z,70.42
2017-08-05T19:13:21.954Z,70.86
2017-08-05T19:15:50.356Z,71.55
2017-08-05T19:18:19.053Z,72.01
2017-08-05T19:20:47.472Z,72.51
2017-08-05T19:23:15.868Z,71.82
2017-08-05T19:25:44.905Z,71.11
2017-08-05T19:28:13.267Z,70.72
2017-08-05T19:30:42.388Z,71.01
2017-08-05T19:33:11.127Z,71.34
2017-08-05T19:35:39.502Z,71.65
2017-08-05T19:38:07.855Z,71.73
2017-08-05T19:40:36.631Z,71.66
2017-08-05T19:43:05.000Z,71.96
2017-08-05T19:45:33.377Z,72.04
2017-08-05T19:48:02.748Z,71.72
2017-08-05T19:50:31.184Z,71.16
2017-08-05T19:52:59.559Z,71.18
2017-08-05T19:55:28.235Z,71.30
2017-08-05T19:57:56.595Z,71.01
2017-08-05T20:00:24.946Z,70.96
2017-08-05T20:02:53.628Z,71.88
2017-08-05T20:05:21.989Z,72.08
2017-08-05T20:07:50.343Z,72.14
2017-08-05T20:10:19.436Z,72.11
2017-08-05T20:12:47.789Z,71.84
2017-08-05T20:15:16.144Z,71.98
2017-08-05T20:17:45.067Z,72.60
2017-08-05T20:20:13.426Z,72.65
2017-08-05T20:22:41.788Z,72.99
2017-08-05T20:25:10.633Z,72.55
2017-08-05T20:27:38.994Z,72.70
2017-08-05T20:30:07.376Z,73.09
2017-08-05T20:32:36.247Z,73.45
2017-08-05T20:35:05.356Z,73.27
2017-08-05T20:37:33.711Z,73.20
2017-08-05T20:40:02.371Z,73.55
2017-08-05T20:42:30.739Z,74.27
2017-08-05T20:44:59.099Z,73.89
2017-08-05T20:47:27.890Z,73.76
2017-08-05T20:49:56.249Z,73.33
2017-08-05T20:52:24.597Z,74.45
2017-08-05T20:54:53.318Z,73.97
2017-08-05T20:57:21.683Z,73.87
2017-08-05T20:59:50.817Z,74.04
2017-08-05T21:02:19.467Z,73.74
2017-08-05T21:04:48.592Z,73.42
2017-08-05T21:07:16.951Z,73.36
2017-08-05T21:09:45.839Z,73.68
2017-08-05T21:12:14.224Z,73.35
2017-08-05T21:14:42.585Z,74.35
2017-08-05T21:17:11.309Z,74.05
2017-08-05T21:19:39.688Z,73.94
2017-08-05T21:22:08.037Z,73.87
2017-08-05T21:24:36.823Z,74.26
2017-08-05T21:27:05.968Z,74.24
2017-08-05T21:29:34.343Z,74.31
2017-08-05T21:32:03.092Z,74.26
2017-08-05T21:34:32.232Z,74.43
2017-08-05T21:37:00.587Z,74.71
2017-08-05T21:39:29.291Z,74.82
2017-08-05T21:41:57.648Z,74.68
2017-08-05T21:44:26.015Z,74.65
2017-08-05T21:46:54.919Z,75.21
2017-08-05T21:49:23.299Z,74.53
2017-08-05T21:51:51.645Z,74.56
2017-08-05T21:54:20.296Z,75.48
2017-08-05T21:56:48.670Z,75.27
2017-08-05T21:59:17.071Z,75.41
2017-08-05T22:01:45.807Z,75.47
2017-08-05T22:04:14.278Z,75.34
2017-08-05T22:06:42.664Z,75.71
2017-08-05T22:09:11.451Z,76.12
2017-08-05T22:11:39.810Z,76.40
2017-08-05T22:14:08.191Z,76.35
2017-08-05T22:16:37.138Z,76.29
2017-08-05T22:19:05.503Z,76.18
2017-08-05T22:21:33.862Z,75.70
2017-08-05T22:24:02.692Z,76.31
2017-08-05T22:26:31.069Z,75.22
2017-08-05T22:28:59.443Z,75.18
2017-08-05T22:31:28.336Z,74.66
2017-08-05T22:33:56.749Z,74.36
2017-08-05T22:36:25.119Z,73.78
2017-08-05T22:38:53.768Z,73.42
2017-08-05T22:41:22.123Z,72.74
2017-08-05T22:43:50.493Z,72.03
2017-08-05T22:46:20.150Z,71.81
2017-08-05T22:48:48.530Z,71.52
2017-08-05T22:51:16.958Z,72.10
2017-08-05T22:53:46.346Z,72.00
2017-08-05T22:56:14.685Z,71.28
2017-08-05T22:58:43.061Z,71.32
2017-08-05T23:01:11.820Z,71.49
2017-08-05T23:03:40.203Z,70.95
2017-08-05T23:06:08.565Z,71.19
2017-08-05T23:08:37.422Z,71.60
2017-08-05T23:11:05.786Z,71.34
2017-08-05T23:13:34.164Z,71.91
2017-08-05T23:16:02.801Z,72.23
2017-08-05T23:18:31.949Z,72.32
2017-08-05T23:21:00.319Z,72.39
2017-08-05T23:23:29.026Z,73.00
2017-08-05T23:25:57.373Z,73.46
2017-08-05T23:28:25.745Z,73.25
2017-08-05T23:30:54.898Z,72.66
2017-08-05T23:33:23.262Z,72.43
2017-08-05T23:35:51.616Z,72.98
2017-08-05T23:38:20.291Z,73.24
2017-08-05T23:40:48.666Z,72.69
2017-08-05T23:43:17.017Z,72.35
2017-08-05T23:45:45.950Z,72.30
2017-08-05T23:48:14.324Z,72.93
2017-08-05T23:50:42.685Z,72.10
2017-08-05T23:53:11.586Z,71.84
2017-08-05T23:55:39.948Z,72.39
2017-08-05T23:58:08.318Z,72.75
